Time;durP1;ratioP1;P1;durP2;ratioP2;P2;SDS_P1;SDS_P2;PMS_P1;PMS_P2;Temp;Humidity;BMP_temperature;BMP_pressure;BME280_temperature;BME280_humidity;BME280_pressure;Samples;Min_cycle;Max_cycle;Signal;HPM_P1;HPM_P2
2022/05/16 00:00:16;;;;;;;3.30;2.67;;;18.20;99.90;;;;;;5058379;28;20056;-67
2022/05/16 00:02:43;;;;;;;3.60;1.33;;;18.30;99.90;;;;;;5053934;28;20082;-77
2022/05/16 00:05:10;;;;;;;3.70;1.80;;;18.50;99.90;;;;;;5058435;28;20024;-77
2022/05/16 00:07:37;;;;;;;2.20;1.58;;;18.70;99.90;;;;;;5056521;28;20044;-68
2022/05/16 00:10:07;;;;;;;3.67;1.90;;;18.80;99.90;;;;;;5058487;28;20079;-75
2022/05/16 00:12:35;;;;;;;4.18;3.33;;;19.00;99.90;;;;;;5058378;28;20043;-67
2022/05/16 00:15:03;;;;;;;2.92;2.30;;;19.10;99.90;;;;;;5053054;28;20454;-73
2022/05/16 00:17:30;;;;;;;3.67;1.00;;;19.20;99.90;;;;;;5049191;28;20044;-73
2022/05/16 00:19:57;;;;;;;1.13;1.00;;;19.40;99.90;;;;;;5059935;28;20488;-77
2022/05/16 00:22:27;;;;;;;1.20;0.80;;;19.50;99.90;;;;;;5057481;28;20119;-74
2022/05/16 00:24:54;;;;;;;0.75;0.73;;;19.60;99.90;;;;;;5046880;28;20017;-67
2022/05/16 00:27:21;;;;;;;2.13;0.88;;;19.80;99.90;;;;;;5048835;28;20031;-67
2022/05/16 00:29:48;;;;;;;0.70;0.70;;;20.00;99.90;;;;;;5059568;28;20032;-67
2022/05/16 00:32:17;;;;;;;1.33;1.00;;;20.10;99.90;;;;;;5055918;28;20170;-67
2022/05/16 00:34:44;;;;;;;1.67;0.80;;;20.30;99.90;;;;;;5032643;28;20364;-78
2022/05/16 00:37:11;;;;;;;1.10;0.90;;;20.50;99.90;;;;;;5058431;28;20036;-77
2022/05/16 00:39:38;;;;;;;6.72;1.50;;;20.60;99.90;;;;;;5057789;28;20534;-71
2022/05/16 00:42:05;;;;;;;4.88;4.03;;;20.70;99.90;;;;;;5053503;28;20075;-67
2022/05/16 00:44:34;;;;;;;4.43;0.90;;;20.80;99.90;;;;;;5059511;28;20049;-70
2022/05/16 00:47:02;;;;;;;2.28;1.52;;;20.90;99.90;;;;;;5050221;28;20023;-69
2022/05/16 00:49:33;;;;;;;2.85;0.90;;;21.10;99.90;;;;;;5049318;28;20119;-72
2022/05/16 00:52:07;;;;;;;1.98;0.82;;;21.30;99.90;;;;;;5053167;28;20021;-73
2022/05/16 00:54:41;;;;;;;1.65;1.10;;;21.50;99.90;;;;;;5048299;28;20021;-68
2022/05/16 00:57:13;;;;;;;3.90;3.20;;;21.70;99.90;;;;;;5051284;28;20503;-70
2022/05/16 00:59:52;;;;;;;2.60;1.88;;;21.80;99.90;;;;;;5060549;28;20059;-74
2022/05/16 01:05:08;;;;;;;1.10;0.85;;;22.20;99.90;;;;;;5066530;28;20493;-68
2022/05/16 01:07:39;;;;;;;2.25;1.10;;;22.30;99.90;;;;;;5058757;28;20459;-70
2022/05/16 01:10:08;;;;;;;2.15;1.13;;;22.40;99.90;;;;;;5058772;28;20047;-70
2022/05/16 01:12:39;;;;;;;2.22;2.03;;;22.50;99.90;;;;;;5062714;28;20522;-69
2022/05/16 01:15:10;;;;;;;1.38;1.20;;;22.80;99.90;;;;;;5057517;28;20021;-67
2022/05/16 01:17:37;;;;;;;0.75;0.75;;;22.80;99.90;;;;;;5055791;28;20020;-67
2022/05/16 01:20:06;;;;;;;1.75;0.50;;;22.90;99.90;;;;;;5057868;28;20013;-70
2022/05/16 01:22:48;;;;;;;1.25;0.80;;;23.10;99.90;;;;;;5058597;28;20025;-70
2022/05/16 01:25:21;;;;;;;1.90;1.33;;;23.30;99.90;;;;;;5058665;28;20030;-70
2022/05/16 01:27:56;;;;;;;0.93;0.75;;;23.40;99.90;;;;;;5058290;28;20033;-70
2022/05/16 01:30:30;;;;;;;0.75;0.75;;;23.40;99.40;;;;;;5061130;28;20027;-66
2022/05/16 01:32:57;;;;;;;1.10;1.00;;;23.40;99.90;;;;;;5041751;28;20111;-66
2022/05/16 01:35:28;;;;;;;1.25;0.80;;;23.40;99.90;;;;;;5044545;28;20056;-66
2022/05/16 01:40:40;;;;;;;1.58;1.20;;;23.70;99.90;;;;;;5055073;28;20070;-70
2022/05/16 01:43:08;;;;;;;3.30;2.45;;;23.70;99.90;;;;;;5052858;28;20032;-66
2022/05/16 01:45:36;;;;;;;1.65;1.38;;;23.70;99.40;;;;;;5057947;28;20032;-70
2022/05/16 01:48:04;;;;;;;1.00;0.90;;;23.80;99.90;;;;;;5038865;28;20060;-71
2022/05/16 01:50:31;;;;;;;1.23;0.75;;;23.70;98.90;;;;;;5049330;28;20029;-66
2022/05/16 01:52:58;;;;;;;3.03;2.35;;;23.70;99.60;;;;;;5048417;28;20028;-70
2022/05/16 01:55:25;;;;;;;1.00;1.00;;;23.80;99.90;;;;;;5058909;28;20043;-70
2022/05/16 01:57:52;;;;;;;4.28;1.58;;;23.90;99.10;;;;;;5048438;28;20028;-66
2022/05/16 02:00:19;;;;;;;1.77;0.90;;;23.80;98.50;;;;;;5054550;28;20016;-66
2022/05/16 02:02:46;;;;;;;1.83;0.55;;;23.90;99.20;;;;;;5048759;28;20021;-67
2022/05/16 02:05:17;;;;;;;0.85;0.57;;;24.10;99.80;;;;;;5049039;28;20028;-70
2022/05/16 02:07:45;;;;;;;0.70;0.70;;;24.40;99.20;;;;;;5057552;28;20016;-67
2022/05/16 02:10:15;;;;;;;4.07;2.60;;;24.50;99.00;;;;;;5037025;28;20383;-70
2022/05/16 02:12:43;;;;;;;3.33;2.92;;;24.40;98.30;;;;;;5055961;28;20033;-67
2022/05/16 02:15:13;;;;;;;1.17;0.82;;;24.40;97.40;;;;;;5040891;28;20533;-70
2022/05/16 02:17:40;;;;;;;1.70;1.13;;;24.40;98.10;;;;;;5049712;28;20020;-66
2022/05/16 02:20:08;;;;;;;3.35;1.60;;;24.50;97.80;;;;;;5056095;28;20045;-67
2022/05/16 02:25:20;;;;;;;0.80;0.70;;;24.60;97.10;;;;;;5059445;28;20032;-69
2022/05/16 02:27:48;;;;;;;1.42;0.70;;;24.60;97.20;;;;;;5055161;28;20065;-66
2022/05/16 02:30:15;;;;;;;0.80;0.70;;;24.60;97.20;;;;;;5055703;28;20021;-66
2022/05/16 02:32:42;;;;;;;1.95;1.00;;;24.80;97.40;;;;;;5055252;28;20045;-70
2022/05/16 02:35:10;;;;;;;1.42;0.60;;;24.80;97.40;;;;;;5044903;28;20494;-66
2022/05/16 02:37:37;;;;;;;0.65;0.60;;;24.90;97.40;;;;;;5050513;28;20079;-66
2022/05/16 02:40:05;;;;;;;0.80;0.63;;;25.10;97.30;;;;;;5063733;28;20017;-66
2022/05/16 02:42:32;;;;;;;2.15;0.50;;;25.20;97.20;;;;;;5062878;28;20086;-66
2022/05/16 02:44:59;;;;;;;1.30;0.68;;;25.30;97.60;;;;;;5065100;28;20017;-69
2022/05/16 02:47:26;;;;;;;1.70;0.85;;;25.50;96.60;;;;;;5064649;28;20021;-70
2022/05/16 02:49:54;;;;;;;1.67;0.60;;;25.60;95.70;;;;;;5064325;28;20025;-67
2022/05/16 02:52:21;;;;;;;0.88;0.55;;;25.50;96.50;;;;;;5065904;28;20017;-70
2022/05/16 02:54:48;;;;;;;0.80;0.70;;;25.60;96.70;;;;;;5054652;28;20368;-69
2022/05/16 02:57:15;;;;;;;1.42;0.70;;;25.60;96.80;;;;;;5064535;28;20017;-70
2022/05/16 02:59:42;;;;;;;1.90;0.70;;;25.60;97.00;;;;;;5062323;28;20028;-66
2022/05/16 03:02:11;;;;;;;2.70;0.80;;;25.50;97.10;;;;;;5064148;28;20600;-66
2022/05/16 03:04:38;;;;;;;1.38;0.70;;;25.60;96.60;;;;;;5064889;28;20529;-70
2022/05/16 03:07:06;;;;;;;1.20;0.88;;;25.60;97.00;;;;;;5063319;28;20031;-68
2022/05/16 03:09:33;;;;;;;2.15;0.90;;;25.70;96.90;;;;;;5059724;28;20403;-68
2022/05/16 03:12:01;;;;;;;2.05;0.77;;;25.90;96.60;;;;;;5056498;28;20102;-66
2022/05/16 03:14:28;;;;;;;3.40;0.98;;;26.00;96.20;;;;;;5049181;28;20035;-65
2022/05/16 03:16:56;;;;;;;3.42;0.80;;;26.10;96.30;;;;;;5055083;28;20100;-68
2022/05/16 03:19:23;;;;;;;1.42;0.80;;;26.00;96.60;;;;;;5055436;28;20029;-69
2022/05/16 03:21:50;;;;;;;0.60;0.60;;;25.90;96.30;;;;;;5060601;28;20020;-66
2022/05/16 03:24:17;;;;;;;1.33;0.52;;;26.00;96.10;;;;;;5059776;28;20369;-66
2022/05/16 03:26:44;;;;;;;1.98;0.95;;;26.00;96.40;;;;;;5059569;28;20111;-65
2022/05/16 03:29:11;;;;;;;0.57;0.57;;;26.00;96.50;;;;;;5052867;28;20028;-69
2022/05/16 03:31:39;;;;;;;1.10;0.88;;;26.10;95.80;;;;;;5049300;28;20029;-66
2022/05/16 03:34:07;;;;;;;1.25;0.70;;;26.00;95.60;;;;;;5056208;28;20364;-66
2022/05/16 03:36:35;;;;;;;1.45;0.60;;;26.10;96.10;;;;;;5052815;28;20025;-66
2022/05/16 03:41:48;;;;;;;0.50;0.50;;;26.20;95.50;;;;;;5062648;28;20077;-65
2022/05/16 03:44:15;;;;;;;1.52;0.63;;;26.30;95.20;;;;;;5068044;28;20447;-69
2022/05/16 03:46:42;;;;;;;0.73;0.40;;;26.00;95.00;;;;;;5064231;28;20017;-69
2022/05/16 03:49:09;;;;;;;1.95;1.10;;;26.00;95.60;;;;;;5057026;28;20020;-68
2022/05/16 03:51:37;;;;;;;3.20;2.03;;;26.00;95.30;;;;;;5052192;28;20013;-66
2022/05/16 03:54:06;;;;;;;5.72;3.40;;;26.00;94.80;;;;;;5052627;28;20383;-66
2022/05/16 03:56:34;;;;;;;1.92;1.70;;;26.00;94.50;;;;;;5052105;28;20538;-69
2022/05/16 03:59:00;;;;;;;1.63;1.00;;;25.70;95.60;;;;;;5061800;28;20028;-70
2022/05/16 04:01:28;;;;;;;1.35;0.70;;;25.60;95.30;;;;;;5052580;28;20024;-69
2022/05/16 04:03:55;;;;;;;0.52;0.52;;;25.70;95.30;;;;;;5056402;28;20043;-65
2022/05/16 04:06:22;;;;;;;1.13;0.50;;;25.70;95.30;;;;;;5053292;28;20099;-65
2022/05/16 04:08:50;;;;;;;1.15;0.47;;;25.90;95.10;;;;;;5065740;28;20064;-71
2022/05/16 04:11:18;;;;;;;1.65;0.50;;;25.90;95.60;;;;;;5065712;28;20021;-67
2022/05/16 04:13:46;;;;;;;4.00;0.70;;;26.00;95.60;;;;;;5063847;28;20379;-66
2022/05/16 04:16:14;;;;;;;1.25;0.50;;;25.90;94.80;;;;;;5063718;28;20029;-70
2022/05/16 04:18:44;;;;;;;1.33;0.90;;;25.80;94.40;;;;;;5053859;28;20239;-66
2022/05/16 04:21:11;;;;;;;1.85;1.60;;;25.80;94.30;;;;;;5051674;28;20023;-66
2022/05/16 04:23:38;;;;;;;4.05;3.72;;;25.60;95.40;;;;;;5043220;28;20395;-69
2022/05/16 04:26:05;;;;;;;0.77;0.63;;;25.70;95.80;;;;;;4361954;28;10000686;-71
2022/05/16 04:28:33;;;;;;;0.60;0.60;;;25.70;94.50;;;;;;5047716;28;20238;-65
2022/05/16 04:31:00;;;;;;;0.50;0.50;;;25.80;95.40;;;;;;5048410;28;20029;-70
2022/05/16 04:33:27;;;;;;;3.08;0.60;;;25.90;95.50;;;;;;5051937;28;20027;-65
2022/05/16 04:35:54;;;;;;;0.50;0.50;;;26.00;94.90;;;;;;5062439;28;20031;-66
2022/05/16 04:38:21;;;;;;;0.82;0.60;;;26.10;95.20;;;;;;5037452;28;20045;-66
2022/05/16 04:43:33;;;;;;;0.80;0.50;;;26.10;94.60;;;;;;5040744;28;20027;-66
2022/05/16 04:46:04;;;;;;;1.00;0.60;;;26.30;93.20;;;;;;5042471;28;20027;-71
2022/05/16 04:48:31;;;;;;;2.00;0.63;;;26.10;93.90;;;;;;5029930;28;20578;-70
2022/05/16 04:50:58;;;;;;;1.40;0.50;;;26.00;94.80;;;;;;5042773;28;20108;-66
2022/05/16 04:53:25;;;;;;;0.85;0.52;;;26.10;95.10;;;;;;5042641;28;20052;-66
2022/05/16 04:55:53;;;;;;;1.00;0.57;;;26.00;95.20;;;;;;5042702;28;20399;-66
2022/05/16 04:58:22;;;;;;;0.80;0.50;;;25.90;95.40;;;;;;5012462;28;20065;-66
2022/05/16 05:00:49;;;;;;;0.57;0.50;;;25.70;95.00;;;;;;5031551;28;20025;-70
2022/05/16 05:03:16;;;;;;;1.25;1.00;;;25.70;95.30;;;;;;5038547;28;20022;-69
2022/05/16 05:05:43;;;;;;;1.38;0.60;;;25.80;94.60;;;;;;5035447;28;20017;-70
2022/05/16 05:08:10;;;;;;;3.55;0.75;;;25.80;94.80;;;;;;5016708;28;20530;-72
2022/05/16 05:16:16;;;;;;;1.75;0.60;;;26.10;95.30;;;;;;5035885;28;20032;-63
2022/05/16 05:18:44;;;;;;;0.65;0.60;;;26.60;95.00;;;;;;5033477;28;20033;-69
2022/05/16 05:21:12;;;;;;;1.95;0.80;;;26.80;94.50;;;;;;5042550;28;20021;-70
2022/05/16 05:23:40;;;;;;;1.27;0.50;;;26.90;93.80;;;;;;5044060;28;20395;-66
2022/05/16 05:26:09;;;;;;;2.35;0.68;;;26.90;94.20;;;;;;5033105;28;20384;-69
2022/05/16 05:28:38;;;;;;;1.83;0.88;;;27.20;94.00;;;;;;5040152;28;20037;-66
2022/05/16 05:31:09;;;;;;;2.78;0.85;;;27.40;92.90;;;;;;5029852;28;20029;-66
2022/05/16 05:33:36;;;;;;;1.97;0.87;;;27.20;93.30;;;;;;5028188;28;20079;-66
2022/05/16 05:36:04;;;;;;;3.50;1.00;;;27.20;93.50;;;;;;5037708;28;20258;-66
2022/05/16 05:38:31;;;;;;;2.78;0.93;;;26.90;93.60;;;;;;5029034;28;20069;-67
2022/05/16 05:40:58;;;;;;;2.03;0.68;;;27.00;93.90;;;;;;5038321;28;20364;-69
2022/05/16 05:43:25;;;;;;;2.65;0.88;;;27.00;94.40;;;;;;5035831;28;20150;-66
2022/05/16 05:45:52;;;;;;;2.55;0.90;;;27.10;94.10;;;;;;5032749;28;20029;-67
2022/05/16 05:48:19;;;;;;;2.10;0.80;;;27.00;94.30;;;;;;5032219;28;20810;-70
2022/05/16 05:50:47;;;;;;;1.65;0.80;;;27.00;94.20;;;;;;5032838;28;20539;-69
2022/05/16 05:53:14;;;;;;;1.02;0.88;;;26.50;94.90;;;;;;5031427;28;20034;-66
2022/05/16 05:55:41;;;;;;;0.57;0.47;;;25.90;95.30;;;;;;5033023;28;20051;-65
2022/05/16 05:58:08;;;;;;;0.65;0.65;;;25.20;96.60;;;;;;5031349;28;20059;-68
2022/05/16 06:00:35;;;;;;;1.95;0.60;;;24.70;96.60;;;;;;5033451;28;20100;-65
2022/05/16 06:03:02;;;;;;;1.75;0.85;;;24.40;98.60;;;;;;5035615;28;20025;-68
2022/05/16 06:05:29;;;;;;;1.30;0.80;;;24.30;97.90;;;;;;5033207;28;20272;-66
2022/05/16 06:07:56;;;;;;;2.85;0.60;;;24.20;98.40;;;;;;5035112;28;20045;-68
2022/05/16 06:10:24;;;;;;;4.00;1.23;;;24.00;98.20;;;;;;5038075;28;20132;-67
2022/05/16 06:12:51;;;;;;;2.88;1.30;;;23.70;99.60;;;;;;5038338;28;20383;-65
2022/05/16 06:15:18;;;;;;;3.17;1.40;;;23.40;99.20;;;;;;5023863;28;20033;-64
2022/05/16 06:17:46;;;;;;;3.70;1.20;;;23.30;99.90;;;;;;5027015;28;20331;-65
2022/05/16 06:20:14;;;;;;;2.58;1.20;;;23.30;99.90;;;;;;5033412;28;20580;-65
2022/05/16 06:22:41;;;;;;;2.50;1.40;;;23.30;99.90;;;;;;5035456;28;20021;-67
2022/05/16 06:28:14;;;;;;;2.20;1.30;;;23.20;99.90;;;;;;5031639;28;20044;-66
2022/05/16 06:30:47;;;;;;;2.80;1.30;;;23.10;99.90;;;;;;5039467;28;20035;-67
2022/05/16 06:33:15;;;;;;;2.63;1.30;;;23.20;99.90;;;;;;5036583;28;20096;-66
2022/05/16 06:35:43;;;;;;;2.47;1.20;;;23.20;99.90;;;;;;5040623;28;20087;-69
2022/05/16 06:38:11;;;;;;;1.42;0.95;;;23.30;99.90;;;;;;5037065;28;20059;-66
2022/05/16 06:40:42;;;;;;;3.10;1.25;;;23.60;99.90;;;;;;5036383;28;20020;-66
2022/05/16 06:43:10;;;;;;;2.45;1.17;;;23.70;99.90;;;;;;5034020;28;20479;-68
2022/05/16 06:45:37;;;;;;;1.85;1.13;;;24.20;99.90;;;;;;5037967;28;20040;-73
2022/05/16 06:48:05;;;;;;;1.77;1.08;;;24.40;99.90;;;;;;5039132;28;20025;-72
2022/05/16 06:50:33;;;;;;;3.55;1.60;;;24.30;99.90;;;;;;5043521;28;20423;-74
2022/05/16 06:53:02;;;;;;;2.85;1.75;;;23.90;99.90;;;;;;5050537;28;20117;-73
2022/05/16 06:55:29;;;;;;;4.03;1.70;;;23.20;99.90;;;;;;5052806;28;20509;-71
2022/05/16 06:57:56;;;;;;;3.50;1.83;;;22.70;99.90;;;;;;5043272;28;20029;-73
2022/05/16 07:00:26;;;;;;;4.50;1.92;;;22.20;99.90;;;;;;5043861;28;20028;-75
2022/05/16 07:02:53;;;;;;;4.93;1.85;;;21.70;99.90;;;;;;5039307;28;20032;-74
2022/05/16 07:05:20;;;;;;;4.35;1.95;;;21.30;99.90;;;;;;5046072;28;20032;-69
2022/05/16 07:07:47;;;;;;;5.28;1.80;;;21.00;99.90;;;;;;5038299;28;20016;-68
2022/05/16 07:10:14;;;;;;;5.75;2.67;;;20.70;99.90;;;;;;5042879;28;20021;-71
2022/05/16 07:12:42;;;;;;;4.32;2.42;;;20.60;99.90;;;;;;5040590;28;20037;-71
2022/05/16 07:15:09;;;;;;;3.25;2.22;;;20.30;99.90;;;;;;5045801;28;21056;-68
2022/05/16 07:17:36;;;;;;;3.67;1.73;;;20.00;99.90;;;;;;5038190;28;20024;-72
2022/05/16 07:20:04;;;;;;;5.00;1.92;;;19.80;99.90;;;;;;5028419;28;20545;-75
2022/05/16 07:22:31;;;;;;;4.68;2.15;;;19.60;99.90;;;;;;5034766;28;20029;-68
2022/05/16 07:24:59;;;;;;;4.80;1.83;;;19.40;99.90;;;;;;5037115;28;20033;-67
2022/05/16 07:30:12;;;;;;;3.92;1.98;;;19.00;99.90;;;;;;5032557;28;20036;-68
2022/05/16 07:32:43;;;;;;;4.43;1.63;;;18.70;99.90;;;;;;5023502;28;20405;-67
2022/05/16 07:35:22;;;;;;;5.93;2.05;;;18.70;99.90;;;;;;5044536;28;20054;-72
2022/05/16 07:37:49;;;;;;;2.10;1.73;;;18.70;99.90;;;;;;5044420;28;20075;-71
2022/05/16 07:40:17;;;;;;;3.83;2.00;;;18.60;99.90;;;;;;5064181;28;20027;-78
2022/05/16 07:42:44;;;;;;;6.65;2.40;;;18.40;99.90;;;;;;5061322;28;20123;-67
2022/05/16 07:45:11;;;;;;;4.25;1.90;;;18.30;99.90;;;;;;5060135;28;20461;-68
2022/05/16 07:47:38;;;;;;;4.68;2.95;;;18.20;99.90;;;;;;5060000;28;20100;-74
2022/05/16 07:50:07;;;;;;;6.35;2.88;;;18.10;99.90;;;;;;5064573;28;20019;-68
2022/05/16 07:52:34;;;;;;;8.52;2.80;;;18.10;99.90;;;;;;5058817;28;20116;-67
2022/05/16 07:55:02;;;;;;;4.70;2.05;;;18.00;99.90;;;;;;5058838;28;20025;-78
2022/05/16 07:57:30;;;;;;;7.45;2.72;;;18.00;99.90;;;;;;5058135;28;20038;-73
2022/05/16 07:59:58;;;;;;;4.90;2.20;;;18.30;99.90;;;;;;5059911;28;20020;-72
2022/05/16 08:02:25;;;;;;;4.65;1.40;;;18.60;99.90;;;;;;5054064;28;20144;-72
2022/05/16 08:04:51;;;;;;;4.75;1.20;;;18.90;99.90;;;;;;5063716;28;20024;-68
2022/05/16 08:07:18;;;;;;;2.53;0.85;;;18.90;99.90;;;;;;5058848;28;20020;-71
2022/05/16 08:12:33;;;;;;;2.90;1.40;;;19.10;99.90;;;;;;5068630;28;20283;-71
2022/05/16 08:15:00;;;;;;;2.47;1.30;;;19.10;99.90;;;;;;5059530;28;20406;-66
2022/05/16 08:17:31;;;;;;;2.67;1.50;;;19.00;99.90;;;;;;5056795;28;20060;-71
2022/05/16 08:19:58;;;;;;;4.13;1.40;;;19.00;99.90;;;;;;5063009;28;20183;-73
2022/05/16 08:22:30;;;;;;;2.92;0.80;;;18.90;99.90;;;;;;5061983;28;20051;-69
2022/05/16 08:24:57;;;;;;;2.92;1.60;;;18.80;99.90;;;;;;5075403;28;20032;-68
2022/05/16 08:27:25;;;;;;;3.13;1.38;;;18.80;99.90;;;;;;5066942;28;20442;-67
2022/05/16 08:29:52;;;;;;;3.35;1.52;;;18.60;99.90;;;;;;5068433;28;20964;-66
2022/05/16 08:32:23;;;;;;;3.47;1.88;;;18.40;99.90;;;;;;5061027;28;20029;-69
2022/05/16 08:34:51;;;;;;;4.25;1.45;;;18.20;99.90;;;;;;5054051;28;20036;-68
2022/05/16 08:40:05;;;;;;;8.90;2.38;;;18.00;99.90;;;;;;5061548;28;20098;-69
2022/05/16 08:42:55;;;;;;;5.22;2.08;;;18.00;99.90;;;;;;5042351;28;20025;-70
2022/05/16 08:45:34;;;;;;;3.13;1.67;;;18.00;99.90;;;;;;5053150;28;20024;-68
2022/05/16 08:48:12;;;;;;;3.25;2.10;;;17.80;99.90;;;;;;5059371;28;20047;-66
2022/05/16 08:50:57;;;;;;;5.57;2.03;;;17.60;99.90;;;;;;5060344;28;20835;-69
2022/05/16 08:53:42;;;;;;;5.55;1.88;;;17.50;99.90;;;;;;5056203;28;20483;-74
2022/05/16 08:56:13;;;;;;;3.83;1.67;;;17.60;99.90;;;;;;5054858;28;20020;-73
2022/05/16 08:58:47;;;;;;;3.80;1.35;;;17.70;99.90;;;;;;5051288;28;20020;-71
2022/05/16 09:01:27;;;;;;;2.67;1.23;;;17.70;99.90;;;;;;5054237;28;20054;-67
2022/05/16 09:04:02;;;;;;;1.80;1.10;;;17.80;99.90;;;;;;5051673;28;20508;-71
2022/05/16 09:06:57;;;;;;;6.60;1.20;;;17.70;99.90;;;;;;5050991;28;20736;-72
2022/05/16 09:09:41;;;;;;;3.88;1.10;;;17.60;99.90;;;;;;5052286;28;20147;-71
2022/05/16 09:12:14;;;;;;;5.45;1.00;;;17.70;99.90;;;;;;5053976;28;20035;-70
2022/05/16 09:15:00;;;;;;;4.40;1.30;;;17.80;99.90;;;;;;5058338;28;20039;-67
2022/05/16 09:17:42;;;;;;;2.35;0.90;;;17.80;99.90;;;;;;5057448;28;20020;-70
2022/05/16 09:20:48;;;;;;;3.22;0.90;;;17.80;99.90;;;;;;5059029;28;20561;-72
2022/05/16 09:23:51;;;;;;;5.25;1.10;;;17.80;99.90;;;;;;5054915;28;20021;-70
2022/05/16 09:26:36;;;;;;;5.05;1.63;;;17.90;99.90;;;;;;5053799;28;20047;-69
2022/05/16 09:29:23;;;;;;;6.00;2.33;;;18.00;99.90;;;;;;5059016;28;20141;-69
2022/05/16 09:31:54;;;;;;;4.82;1.80;;;18.10;99.90;;;;;;5054777;28;20838;-68
2022/05/16 09:34:21;;;;;;;3.95;1.27;;;18.00;99.90;;;;;;5057872;28;20102;-69
2022/05/16 09:36:49;;;;;;;8.85;4.28;;;17.90;99.90;;;;;;5050763;28;20059;-68
2022/05/16 09:39:24;;;;;;;8.38;3.13;;;17.90;99.90;;;;;;5059933;28;21466;-69
2022/05/16 09:42:09;;;;;;;5.50;2.38;;;17.80;99.90;;;;;;5057836;28;20098;-70
2022/05/16 09:44:47;;;;;;;7.68;3.78;;;17.70;99.90;;;;;;5066992;28;20020;-70
2022/05/16 09:47:19;;;;;;;6.22;1.23;;;17.80;99.90;;;;;;5066995;28;20706;-67
2022/05/16 09:50:24;;;;;;;11.73;5.40;;;17.90;99.90;;;;;;5064236;28;20027;-67
2022/05/16 09:53:07;;;;;;;5.18;1.92;;;17.90;99.90;;;;;;5052293;28;20028;-69
2022/05/16 09:55:41;;;;;;;3.53;2.72;;;17.90;99.90;;;;;;5060254;28;20029;-71
2022/05/16 09:58:19;;;;;;;6.28;3.90;;;17.80;99.90;;;;;;5058898;28;20465;-70
2022/05/16 10:01:03;;;;;;;2.53;1.10;;;17.80;99.90;;;;;;5058818;28;20029;-74
2022/05/16 10:03:34;;;;;;;1.67;0.68;;;17.80;99.90;;;;;;5056356;28;20028;-74
2022/05/16 10:06:10;;;;;;;1.90;1.48;;;17.70;99.90;;;;;;5059837;28;20035;-69
2022/05/16 10:08:42;;;;;;;1.63;0.75;;;17.70;99.90;;;;;;5056446;28;20037;-71
2022/05/16 10:11:23;;;;;;;3.25;0.93;;;17.70;99.90;;;;;;5061509;28;20027;-67
2022/05/16 10:13:50;;;;;;;2.65;1.20;;;17.60;99.90;;;;;;5059045;28;20040;-71
2022/05/16 10:16:20;;;;;;;1.73;0.85;;;17.40;99.90;;;;;;5064535;28;20975;-69
2022/05/16 10:19:07;;;;;;;4.05;1.40;;;17.30;99.90;;;;;;5059033;28;20434;-71
2022/05/16 10:21:40;;;;;;;2.70;1.23;;;17.30;99.90;;;;;;5063494;28;20012;-70
2022/05/16 10:24:10;;;;;;;2.75;1.50;;;17.30;99.90;;;;;;5062887;28;20024;-71
2022/05/16 10:26:44;;;;;;;3.53;2.58;;;17.20;99.90;;;;;;5062115;28;20026;-70
2022/05/16 10:29:26;;;;;;;6.05;2.75;;;17.10;99.90;;;;;;5063851;28;20139;-75
2022/05/16 10:35:02;;;;;;;4.07;1.88;;;17.00;99.90;;;;;;5060591;28;20047;-70
2022/05/16 10:37:36;;;;;;;4.22;1.55;;;17.00;99.90;;;;;;5104957;22;20052;-69
2022/05/16 10:40:10;;;;;;;5.57;2.28;;;17.10;99.90;;;;;;5065135;28;20096;-78
2022/05/16 10:43:03;;;;;;;4.15;1.25;;;17.10;99.90;;;;;;5061620;28;20027;-69
2022/05/16 10:45:32;;;;;;;2.20;1.35;;;17.20;99.90;;;;;;4977184;28;20034;-69
2022/05/16 10:48:24;;;;;;;3.95;1.52;;;17.20;99.90;;;;;;4982394;28;20088;-70
2022/05/16 10:51:03;;;;;;;3.63;1.48;;;17.30;99.90;;;;;;4982541;28;20508;-71
2022/05/16 10:53:58;;;;;;;3.20;1.30;;;17.30;99.90;;;;;;4982376;28;20173;-74
2022/05/16 10:56:36;;;;;;;2.05;1.23;;;17.20;99.90;;;;;;4977439;28;21287;-75
2022/05/16 10:59:31;;;;;;;2.10;0.95;;;17.10;99.90;;;;;;4980843;28;20040;-74
2022/05/16 11:02:47;;;;;;;3.53;2.03;;;16.90;99.90;;;;;;4978296;28;20113;-70
2022/05/16 11:05:39;;;;;;;2.97;0.90;;;16.90;99.90;;;;;;4979039;28;20543;-75
2022/05/16 11:08:36;;;;;;;2.00;0.82;;;16.70;99.90;;;;;;4982249;28;20037;-74
2022/05/16 11:11:12;;;;;;;4.97;2.00;;;16.30;99.90;;;;;;4976957;28;20042;-70
2022/05/16 11:14:29;;;;;;;4.03;1.15;;;16.00;99.90;;;;;;4976692;28;20506;-76
2022/05/16 11:17:07;;;;;;;3.35;1.35;;;15.70;99.90;;;;;;4948495;28;20039;-69
2022/05/16 11:19:50;;;;;;;5.05;1.02;;;15.50;99.90;;;;;;4952327;28;20130;-69
2022/05/16 11:22:37;;;;;;;5.13;1.30;;;15.40;99.90;;;;;;4972684;28;20041;-69
2022/05/16 11:25:48;;;;;;;5.13;1.40;;;15.40;99.90;;;;;;5010572;28;20033;-73
2022/05/16 11:29:17;;;;;;;3.88;1.08;;;15.30;99.90;;;;;;4929804;29;20051;-69
2022/05/16 11:31:45;;;;;;;5.70;1.23;;;15.30;99.90;;;;;;4916563;29;20103;-65
2022/05/16 11:34:23;;;;;;;2.38;1.15;;;15.40;99.90;;;;;;4915449;29;20032;-66
2022/05/16 11:37:08;;;;;;;5.30;1.27;;;15.30;99.90;;;;;;4912481;29;20619;-68
2022/05/16 11:39:49;;;;;;;4.25;1.00;;;15.30;99.90;;;;;;4945227;28;20047;-71
2022/05/16 11:42:45;;;;;;;2.53;0.77;;;15.30;99.90;;;;;;4946151;28;20031;-68
2022/05/16 11:45:31;;;;;;;4.90;1.40;;;15.30;99.90;;;;;;4953679;28;20031;-71
2022/05/16 11:48:21;;;;;;;1.92;1.15;;;15.30;99.90;;;;;;4939858;28;20474;-74
2022/05/16 11:51:00;;;;;;;1.95;0.80;;;15.10;99.90;;;;;;4949813;28;20233;-72
2022/05/16 11:53:50;;;;;;;2.90;1.00;;;15.00;99.90;;;;;;4957548;28;20088;-71
2022/05/16 12:02:22;;;;;;;2.50;0.90;;;14.60;99.90;;;;;;4961335;28;20105;-74
2022/05/16 12:05:08;;;;;;;5.63;0.90;;;14.40;99.90;;;;;;4979564;28;20088;-69
2022/05/16 12:07:35;;;;;;;3.20;1.05;;;14.20;99.90;;;;;;5033913;28;20048;-69
2022/05/16 12:10:24;;;;;;;4.13;1.08;;;14.10;99.90;;;;;;5047049;28;20040;-68
2022/05/16 12:13:18;;;;;;;5.38;1.40;;;14.20;99.90;;;;;;5063882;28;20056;-74
2022/05/16 12:15:46;;;;;;;4.63;1.33;;;14.20;99.90;;;;;;5058625;28;20024;-68
2022/05/16 12:18:38;;;;;;;4.05;1.35;;;14.20;99.90;;;;;;5074189;28;20035;-71
2022/05/16 12:21:12;;;;;;;4.68;1.60;;;14.20;99.90;;;;;;5054394;28;20052;-71
2022/05/16 12:23:51;;;;;;;4.22;1.50;;;14.10;99.90;;;;;;5051476;28;20027;-70
2022/05/16 12:26:27;;;;;;;6.57;1.30;;;14.00;99.90;;;;;;5043542;28;20025;-70
2022/05/16 12:29:09;;;;;;;2.42;1.15;;;14.00;99.90;;;;;;5059877;28;20032;-70
2022/05/16 12:31:51;;;;;;;2.78;1.13;;;13.90;99.90;;;;;;5039892;28;20036;-74
2022/05/16 12:34:48;;;;;;;3.92;1.35;;;13.70;99.90;;;;;;5064505;28;20067;-71
2022/05/16 12:37:18;;;;;;;6.88;1.70;;;13.80;99.90;;;;;;5007627;28;20046;-71
2022/05/16 12:40:04;;;;;;;4.88;1.60;;;13.80;99.90;;;;;;4995934;28;20049;-70
2022/05/16 12:42:49;;;;;;;2.60;1.17;;;13.70;99.90;;;;;;4997914;28;20038;-71
2022/05/16 12:45:43;;;;;;;2.92;1.17;;;13.60;99.90;;;;;;4998685;28;20022;-71
2022/05/16 12:48:12;;;;;;;;;;;13.50;99.90;;;;;;5001422;28;20038;-69
2022/05/16 12:51:02;;;;;;;3.28;0.90;;;13.30;99.90;;;;;;4980322;28;19920;-75
2022/05/16 12:53:56;;;;;;;4.80;1.58;;;13.40;99.90;;;;;;4974675;28;20587;-70
2022/05/16 12:56:31;;;;;;;4.32;1.58;;;13.40;99.90;;;;;;4983664;28;20317;-70
2022/05/16 12:59:34;;;;;;;3.10;1.42;;;13.40;99.90;;;;;;4988618;28;20073;-71
2022/05/16 13:02:18;;;;;;;4.75;2.08;;;13.20;99.90;;;;;;4997271;28;20031;-71
2022/05/16 13:05:32;;;;;;;4.28;1.92;;;13.10;99.90;;;;;;4993086;28;20504;-74
2022/05/16 13:08:10;;;;;;;1.70;0.85;;;13.10;99.90;;;;;;4933970;29;20193;-70
2022/05/16 13:10:55;;;;;;;5.70;1.75;;;13.00;99.90;;;;;;4942538;29;20340;-72
2022/05/16 13:13:57;;;;;;;3.30;1.30;;;12.90;99.90;;;;;;4953421;28;20102;-70
2022/05/16 13:16:31;;;;;;;3.72;1.20;;;12.90;99.90;;;;;;5006325;28;20026;-71
2022/05/16 13:19:16;;;;;;;2.65;1.00;;;12.90;99.90;;;;;;5010029;28;20084;-69
2022/05/16 13:21:53;;;;;;;3.33;1.10;;;12.80;99.90;;;;;;5003675;28;20018;-73
2022/05/16 13:24:23;;;;;;;4.57;1.20;;;12.90;99.90;;;;;;5011272;28;20037;-71
2022/05/16 13:29:38;;;;;;;3.60;1.33;;;13.10;99.90;;;;;;4999384;28;20061;-73
2022/05/16 13:32:18;;;;;;;5.90;1.58;;;12.90;99.90;;;;;;5001804;28;20038;-70
2022/05/16 13:34:53;;;;;;;3.47;1.20;;;12.90;99.90;;;;;;4998039;28;20030;-72
2022/05/16 13:37:24;;;;;;;6.07;1.30;;;12.90;99.90;;;;;;5008821;28;20049;-75
2022/05/16 13:39:57;;;;;;;3.70;1.40;;;12.80;99.90;;;;;;5030179;28;20034;-70
2022/05/16 13:42:24;;;;;;;;;;;12.70;99.90;;;;;;5030570;28;20026;-72
2022/05/16 13:44:57;;;;;;;3.80;1.60;;;12.70;99.90;;;;;;5048004;28;19909;-74
2022/05/16 13:47:26;;;;;;;2.90;1.42;;;12.80;99.90;;;;;;5053153;28;20071;-68
2022/05/16 13:49:53;;;;;;;3.67;1.40;;;12.70;99.90;;;;;;5053026;28;20048;-69
2022/05/16 13:52:30;;;;;;;4.07;1.40;;;12.70;99.90;;;;;;5061330;28;20024;-73
2022/05/16 13:54:59;;;;;;;5.97;1.15;;;12.70;99.90;;;;;;5039108;28;20043;-70
2022/05/16 13:57:27;;;;;;;3.35;1.65;;;12.70;99.90;;;;;;5059522;28;20020;-70
2022/05/16 14:00:36;;;;;;;3.42;1.40;;;12.70;99.90;;;;;;5060286;28;20017;-72